createdAt,value
2019-04-14T00:00:18.406Z,6.4
2019-04-14T00:01:07.148Z,6.3
2019-04-14T00:01:58.503Z,6.4
2019-04-14T00:02:47.431Z,6.3
2019-04-14T00:03:37.371Z,6.4
2019-04-14T00:04:28.944Z,6.4
2019-04-14T00:05:18.917Z,6.4
2019-04-14T00:06:08.994Z,6.4
2019-04-14T00:06:59.014Z,6.3
2019-04-14T00:07:48.133Z,6.4
2019-04-14T00:08:37.873Z,6.4
2019-04-14T00:09:27.965Z,6.4
2019-04-14T00:10:18.889Z,6.4
2019-04-14T00:11:09.010Z,6.4
2019-04-14T00:11:59.571Z,6.4
2019-04-14T00:12:49.718Z,6.4
2019-04-14T00:13:39.740Z,6.4
2019-04-14T00:14:29.853Z,6.3
2019-04-14T00:15:50.702Z,6.4
2019-04-14T00:16:14.130Z,6.3
2019-04-14T00:17:04.696Z,6.4
2019-04-14T00:17:54.532Z,6.4
2019-04-14T00:18:44.649Z,6.4
2019-04-14T00:19:34.582Z,6.4
2019-04-14T00:20:23.362Z,6.4
2019-04-14T00:21:15.041Z,6.3
2019-04-14T00:22:05.272Z,6.4
2019-04-14T00:22:54.065Z,6.4
2019-04-14T00:23:45.519Z,6.3
2019-04-14T00:24:35.399Z,6.3
2019-04-14T00:25:24.727Z,6.3
2019-04-14T00:26:14.531Z,6.3
2019-04-14T00:27:06.260Z,6.3
2019-04-14T00:27:55.035Z,6.3
2019-04-14T00:28:45.187Z,6.3
2019-04-14T00:29:35.560Z,6.3
2019-04-14T00:30:25.629Z,6.3
2019-04-14T00:31:15.659Z,6.3
2019-04-14T00:32:05.367Z,6.3
2019-04-14T00:32:55.474Z,6.3
2019-04-14T00:33:45.829Z,6.3
2019-04-14T00:34:35.774Z,6.3
2019-04-14T00:35:25.558Z,6.3
2019-04-14T00:36:15.391Z,6.3
2019-04-14T00:37:05.789Z,6.3
2019-04-14T00:37:55.522Z,6.3
2019-04-14T00:38:46.080Z,6.3
2019-04-14T00:39:34.384Z,6.3
2019-04-14T00:40:29.914Z,6.2
2019-04-14T00:41:15.893Z,6.2
2019-04-14T00:42:15.511Z,6.2
2019-04-14T00:43:06.827Z,6.2
2019-04-14T00:43:56.759Z,6.1
2019-04-14T00:44:47.267Z,6.1
2019-04-14T00:46:02.526Z,6.1
2019-04-14T00:46:27.536Z,6.1
2019-04-14T00:47:16.323Z,6.1
2019-04-14T00:48:22.875Z,6.1
2019-04-14T00:48:56.494Z,6.1
2019-04-14T00:49:46.753Z,6.1
2019-04-14T00:50:36.512Z,6.1
2019-04-14T00:51:26.500Z,6.1
2019-04-14T00:52:16.695Z,6.1
2019-04-14T00:53:07.637Z,6.1
2019-04-14T00:53:57.870Z,6
2019-04-14T00:54:46.300Z,6
2019-04-14T00:55:36.285Z,5.9
2019-04-14T00:56:26.385Z,5.9
2019-04-14T00:57:17.978Z,5.9
2019-04-14T00:58:06.526Z,5.9
2019-04-14T00:58:56.811Z,5.9
2019-04-14T00:59:47.315Z,5.9
2019-04-14T01:00:38.585Z,5.8
2019-04-14T01:01:28.540Z,5.8
2019-04-14T01:02:18.814Z,5.8
2019-04-14T01:03:09.041Z,5.7
2019-04-14T01:03:56.935Z,5.7
2019-04-14T01:04:47.470Z,5.6
2019-04-14T01:05:39.343Z,5.6
2019-04-14T01:06:27.781Z,5.6
2019-04-14T01:07:17.813Z,5.6
2019-04-14T01:08:07.847Z,5.5
2019-04-14T01:08:58.017Z,5.4
2019-04-14T01:09:47.327Z,5.4
2019-04-14T01:10:37.332Z,5.4
2019-04-14T01:11:29.113Z,5.4
2019-04-14T01:12:18.947Z,5.3
2019-04-14T01:13:15.739Z,5.3
2019-04-14T01:13:59.303Z,5.3
2019-04-14T01:14:49.451Z,5.3
2019-04-14T01:16:20.261Z,5.3
2019-04-14T01:16:47.823Z,5.2
2019-04-14T01:17:37.547Z,5.2
2019-04-14T01:18:27.818Z,5.2
2019-04-14T01:19:17.621Z,5.2
2019-04-14T01:20:07.810Z,5.1
2019-04-14T01:20:58.311Z,5.1
2019-04-14T01:21:48.011Z,5.1
2019-04-14T01:22:37.822Z,5.1
2019-04-14T01:23:28.194Z,5.1
2019-04-14T01:24:18.453Z,5.1
2019-04-14T01:25:08.459Z,5.1
2019-04-14T01:25:58.446Z,5.1
2019-04-14T01:26:48.411Z,5.1
2019-04-14T01:27:37.032Z,5.1
2019-04-14T01:28:27.088Z,5.1
2019-04-14T01:29:17.112Z,5.1
2019-04-14T01:30:08.714Z,5.1
2019-04-14T01:30:57.316Z,5
2019-04-14T01:31:47.601Z,5
2019-04-14T01:32:39.281Z,5
2019-04-14T01:33:27.943Z,5
2019-04-14T01:34:19.405Z,5
2019-04-14T01:35:09.510Z,4.9
2019-04-14T01:35:59.491Z,4.9
2019-04-14T01:36:48.055Z,4.9
2019-04-14T01:37:39.643Z,4.9
2019-04-14T01:38:29.618Z,4.9
2019-04-14T01:39:18.318Z,4.9
2019-04-14T01:40:08.193Z,4.9
2019-04-14T01:40:59.822Z,4.9
2019-04-14T01:41:48.332Z,4.9
2019-04-14T01:42:39.789Z,4.9
2019-04-14T01:43:28.477Z,4.9
2019-04-14T01:44:19.829Z,4.9
2019-04-14T01:45:08.508Z,4.9
2019-04-14T01:46:32.658Z,4.9
2019-04-14T01:47:00.882Z,4.9
2019-04-14T01:47:49.347Z,4.9
2019-04-14T01:48:39.375Z,4.9
2019-04-14T01:49:29.576Z,4.9
2019-04-14T01:50:19.601Z,4.9
2019-04-14T01:51:09.477Z,4.9
2019-04-14T01:51:59.211Z,4.9
2019-04-14T01:52:50.056Z,4.9
2019-04-14T01:53:39.991Z,4.9
2019-04-14T01:54:29.862Z,4.9
2019-04-14T01:55:18.757Z,4.9
2019-04-14T01:56:08.465Z,4.9
2019-04-14T01:57:00.034Z,4.9
2019-04-14T01:57:48.933Z,4.9
2019-04-14T01:58:38.692Z,4.9
2019-04-14T01:59:30.460Z,4.9
2019-04-14T02:00:18.979Z,4.9
2019-04-14T02:01:09.134Z,4.9
2019-04-14T02:02:00.750Z,4.9
2019-04-14T02:02:49.365Z,4.9
2019-04-14T02:03:39.285Z,4.9
2019-04-14T02:04:29.804Z,4.9
2019-04-14T02:05:19.400Z,4.9
2019-04-14T02:06:09.527Z,4.9
2019-04-14T02:07:01.532Z,4.9
2019-04-14T02:07:51.575Z,4.9
2019-04-14T02:08:41.429Z,4.9
2019-04-14T02:09:31.589Z,4.9
2019-04-14T02:10:20.127Z,4.9
2019-04-14T02:11:11.598Z,4.9
2019-04-14T02:12:00.221Z,4.9
2019-04-14T02:12:51.478Z,4.9
2019-04-14T02:13:40.329Z,4.9
2019-04-14T02:14:30.678Z,4.9
2019-04-14T02:15:20.580Z,4.9
2019-04-14T02:16:54.049Z,4.9
2019-04-14T02:17:29.021Z,4.9
2019-04-14T02:18:18.741Z,4.9
2019-04-14T02:19:09.331Z,4.9
2019-04-14T02:19:59.460Z,4.9
2019-04-14T02:20:49.543Z,4.9
2019-04-14T02:21:39.341Z,4.9
2019-04-14T02:22:28.819Z,4.9
2019-04-14T02:23:19.723Z,4.9
2019-04-14T02:24:09.725Z,5
2019-04-14T02:24:59.724Z,5
2019-04-14T02:25:51.315Z,4.9
2019-04-14T02:26:39.935Z,5
2019-04-14T02:27:29.639Z,4.9
2019-04-14T02:28:19.795Z,5
2019-04-14T02:29:08.382Z,5
2019-04-14T02:30:00.305Z,5
2019-04-14T02:40:52.919Z,5
2019-04-14T02:55:42.051Z,5.2
2019-04-14T03:10:10.193Z,5.3
2019-04-14T03:24:36.948Z,5.4
2019-04-14T03:53:39.684Z,5.5
2019-04-14T03:56:31.829Z,5.6
2019-04-14T03:57:23.435Z,5.6
2019-04-14T03:58:16.450Z,5.6
2019-04-14T03:59:01.970Z,5.6
2019-04-14T03:59:52.325Z,5.6
2019-04-14T04:00:42.676Z,5.6
2019-04-14T04:01:30.863Z,5.6
2019-04-14T04:02:21.090Z,5.6
2019-04-14T04:03:11.141Z,5.6
2019-04-14T04:04:01.365Z,5.6
2019-04-14T04:04:51.937Z,5.6
2019-04-14T04:05:43.238Z,5.6
2019-04-14T04:06:33.397Z,5.6
2019-04-14T04:07:21.895Z,5.6
2019-04-14T04:08:13.410Z,5.7
2019-04-14T04:09:03.870Z,5.7
2019-04-14T04:09:53.986Z,5.7
2019-04-14T04:10:42.690Z,5.7
2019-04-14T04:11:34.360Z,5.7
2019-04-14T04:12:24.602Z,5.7
2019-04-14T04:13:13.628Z,5.8
2019-04-14T04:14:03.608Z,5.8
2019-04-14T04:14:53.585Z,5.8
2019-04-14T04:15:43.219Z,5.8
2019-04-14T04:16:33.747Z,5.8
2019-04-14T04:17:23.772Z,5.8
2019-04-14T04:18:13.955Z,5.8
2019-04-14T04:19:21.165Z,5.8
2019-04-14T04:19:53.690Z,5.8
2019-04-14T04:20:43.890Z,5.8
2019-04-14T04:21:33.849Z,5.8
2019-04-14T04:22:24.156Z,5.9
2019-04-14T04:23:13.884Z,5.9
2019-04-14T04:24:04.263Z,5.9
2019-04-14T04:24:54.246Z,5.9
2019-04-14T04:25:44.324Z,5.9
2019-04-14T04:26:32.740Z,5.9
2019-04-14T04:27:22.864Z,5.9
2019-04-14T04:28:14.291Z,5.9
2019-04-14T04:29:04.814Z,5.9
2019-04-14T04:29:54.625Z,5.9
2019-04-14T04:30:43.194Z,5.9
2019-04-14T04:31:34.748Z,6
2019-04-14T04:32:23.951Z,6
2019-04-14T04:33:13.774Z,6
2019-04-14T04:34:03.869Z,6
2019-04-14T04:34:54.061Z,6.1
2019-04-14T04:35:45.471Z,6.1
2019-04-14T04:36:33.929Z,6.1
2019-04-14T04:37:24.238Z,6.1
2019-04-14T04:38:15.876Z,6.1
2019-04-14T04:39:04.406Z,6.2
2019-04-14T04:39:54.281Z,6.2
2019-04-14T04:40:46.033Z,6.2
2019-04-14T04:41:34.928Z,6.3
2019-04-14T04:42:24.340Z,6.3
2019-04-14T04:43:14.940Z,6.3
2019-04-14T04:44:07.109Z,6.3
2019-04-14T04:44:55.531Z,6.3
2019-04-14T04:45:45.196Z,6.3
2019-04-14T04:46:37.213Z,6.3
2019-04-14T04:47:25.445Z,6.4
2019-04-14T04:48:17.303Z,6.4
2019-04-14T04:49:30.845Z,6.4
2019-04-14T04:49:57.489Z,6.4
2019-04-14T04:50:45.985Z,6.5
2019-04-14T04:51:36.180Z,6.5
2019-04-14T04:52:26.228Z,6.6
2019-04-14T04:53:16.312Z,6.6
2019-04-14T04:54:06.440Z,6.6
2019-04-14T04:54:56.475Z,6.7
2019-04-14T04:55:46.550Z,6.8
2019-04-14T04:56:36.123Z,6.8
2019-04-14T04:57:26.323Z,6.9
2019-04-14T04:58:15.179Z,7
2019-04-14T04:59:07.521Z,7.1
2019-04-14T04:59:57.902Z,7.2
2019-04-14T05:00:57.642Z,7.3
2019-04-14T05:01:36.441Z,7.4
2019-04-14T05:02:27.105Z,7.6
2019-04-14T05:03:17.278Z,7.7
2019-04-14T05:04:06.771Z,7.8
2019-04-14T05:04:55.848Z,7.9
2019-04-14T05:05:47.048Z,8
2019-04-14T05:06:37.127Z,8.1
2019-04-14T05:07:25.694Z,8.3
2019-04-14T05:08:17.292Z,8.4
2019-04-14T05:09:06.306Z,8.5
2019-04-14T05:09:57.735Z,8.6
2019-04-14T05:10:46.215Z,8.7
2019-04-14T05:11:36.404Z,8.9
2019-04-14T05:12:28.348Z,8.9
2019-04-14T05:13:16.666Z,9
2019-04-14T05:14:08.673Z,9.1
2019-04-14T05:14:57.187Z,9.2
2019-04-14T05:15:48.789Z,9.3
2019-04-14T05:16:37.376Z,9.4
2019-04-14T05:17:28.248Z,9.4
2019-04-14T05:18:17.709Z,9.6
2019-04-14T05:19:39.383Z,9.6
2019-04-14T05:20:05.204Z,9.8
2019-04-14T05:20:55.352Z,9.8
2019-04-14T05:21:43.778Z,9.9
2019-04-14T05:22:35.302Z,9.9
2019-04-14T05:23:25.579Z,10.1
2019-04-14T05:24:14.126Z,10.1
2019-04-14T05:25:05.649Z,10.2
2019-04-14T05:25:54.539Z,10.3
2019-04-14T05:26:45.919Z,10.3
2019-04-14T05:27:34.621Z,10.4
2019-04-14T05:28:25.008Z,10.5
2019-04-14T05:29:14.455Z,10.6
2019-04-14T05:30:04.621Z,10.6
2019-04-14T05:30:54.903Z,10.7
2019-04-14T05:31:44.633Z,10.8
2019-04-14T05:32:34.711Z,10.9
2019-04-14T05:33:24.918Z,10.9
2019-04-14T05:34:14.876Z,11.1
2019-04-14T05:35:05.120Z,11.2
2019-04-14T05:35:53.848Z,11.3
2019-04-14T05:36:43.730Z,11.5
2019-04-14T05:37:34.235Z,11.6
2019-04-14T05:38:25.484Z,11.9
2019-04-14T05:39:15.564Z,12.1
2019-04-14T05:40:05.775Z,12.4
2019-04-14T05:40:54.693Z,12.6
2019-04-14T05:42:25.556Z,12.9
2019-04-14T05:42:51.504Z,13.4
2019-04-14T05:44:03.490Z,13.5
2019-04-14T05:44:30.215Z,13.9
2019-04-14T05:45:20.404Z,14.1
2019-04-14T05:46:10.535Z,14.3
2019-04-14T05:47:02.092Z,14.5
2019-04-14T05:47:52.153Z,14.8
2019-04-14T05:48:42.424Z,15.1
2019-04-14T05:49:57.385Z,15.3
2019-04-14T05:50:20.844Z,15.8
2019-04-14T05:51:10.648Z,15.9
2019-04-14T05:52:01.201Z,16.3
2019-04-14T05:52:49.827Z,16.6
2019-04-14T05:53:39.935Z,16.9
2019-04-14T05:54:31.679Z,17.3
2019-04-14T05:55:20.386Z,17.6
2019-04-14T05:56:10.422Z,18
2019-04-14T05:57:00.772Z,18.3
2019-04-14T05:57:52.353Z,18.6
2019-04-14T05:58:40.929Z,18.8
2019-04-14T05:59:32.813Z,19.1
2019-04-14T06:00:23.384Z,19.5
2019-04-14T06:01:11.298Z,19.8
2019-04-14T06:02:00.563Z,20.3
2019-04-14T06:02:51.311Z,20.7
2019-04-14T06:05:03.598Z,22
2019-04-14T06:05:50.706Z,23.1
2019-04-14T06:06:40.501Z,23.5
2019-04-14T06:07:30.573Z,24.2
2019-04-14T06:08:20.613Z,24.8
2019-04-14T06:09:10.688Z,25.3
2019-04-14T06:10:00.731Z,25.8
2019-04-14T06:10:50.807Z,26.3
2019-04-14T06:11:40.870Z,26.7
2019-04-14T06:12:31.180Z,27.1
2019-04-14T06:13:20.997Z,27.4
2019-04-14T06:15:01.098Z,28.3
2019-04-14T06:15:51.415Z,28.8
2019-04-14T06:16:41.481Z,29.4
2019-04-14T06:17:31.036Z,29.9
2019-04-14T06:18:21.068Z,30.6
2019-04-14T06:19:11.668Z,31.3
2019-04-14T06:20:01.771Z,32.1
2019-04-14T06:20:51.528Z,32.9
2019-04-14T06:21:41.308Z,33.8
2019-04-14T06:22:31.669Z,34.5
2019-04-14T06:23:21.990Z,35.3
2019-04-14T06:24:12.043Z,36.2
2019-04-14T06:25:01.823Z,36.9
2019-04-14T06:25:52.167Z,37.7
2019-04-14T06:26:42.260Z,38.4
2019-04-14T06:27:32.285Z,39.1
2019-04-14T06:28:22.071Z,39.8
2019-04-14T06:29:12.398Z,40.6
2019-04-14T06:30:02.477Z,41.4
2019-04-14T06:30:52.274Z,42.2
2019-04-14T06:31:42.307Z,43
2019-04-14T06:32:32.640Z,43.8
2019-04-14T06:33:22.162Z,44.6
2019-04-14T06:34:12.220Z,45.1
2019-04-14T06:35:02.819Z,45.6
2019-04-14T06:35:52.614Z,45.9
2019-04-14T06:36:42.937Z,46
2019-04-14T06:37:32.533Z,46
2019-04-14T06:38:22.325Z,45.9
2019-04-14T06:39:12.654Z,45.9
2019-04-14T06:40:02.439Z,46
2019-04-14T06:40:53.252Z,46.3
2019-04-14T06:41:43.385Z,46.8
2019-04-14T06:42:33.094Z,47.4
2019-04-14T06:43:23.443Z,48.2
2019-04-14T06:44:13.234Z,48.8
2019-04-14T06:45:03.321Z,49.5
2019-04-14T06:45:53.345Z,50.1
2019-04-14T06:46:43.692Z,50.4
2019-04-14T06:47:33.444Z,50.8
2019-04-14T06:48:23.524Z,51
2019-04-14T06:49:13.854Z,51.2
2019-04-14T06:50:03.655Z,51.6
2019-04-14T06:50:53.971Z,52.1
2019-04-14T06:51:43.212Z,52.4
2019-04-14T06:52:33.554Z,52.6
2019-04-14T06:53:23.899Z,52.6
2019-04-14T06:54:13.948Z,52.4
2019-04-14T06:55:04.306Z,52.2
2019-04-14T06:56:43.846Z,51.6
2019-04-14T06:57:34.016Z,51.4
2019-04-14T06:58:24.521Z,51.3
2019-04-14T06:59:13.758Z,51.3
2019-04-14T07:00:04.428Z,51.4
2019-04-14T07:00:54.438Z,51.4
2019-04-14T07:01:44.768Z,51.3
2019-04-14T07:02:34.558Z,51.3
2019-04-14T07:05:00.653Z,52.1
2019-04-14T07:05:50.673Z,52.6
2019-04-14T07:06:40.498Z,53.1
2019-04-14T07:07:30.505Z,53.6
2019-04-14T07:08:20.561Z,54.1
2019-04-14T07:09:10.168Z,54.8
2019-04-14T07:10:00.972Z,55.2
2019-04-14T07:10:50.743Z,55.4
2019-04-14T07:11:40.540Z,55.6
2019-04-14T07:12:30.858Z,56
2019-04-14T07:13:21.838Z,56.6
2019-04-14T07:14:10.707Z,57.3
2019-04-14T07:15:01.038Z,57.9
2019-04-14T07:15:51.394Z,58.7
2019-04-14T07:16:41.447Z,59.4
2019-04-14T07:17:31.501Z,61.5
2019-04-14T07:18:20.757Z,62.2
2019-04-14T07:19:11.660Z,60.6
2019-04-14T07:20:04.444Z,57.9
2019-04-14T07:20:51.492Z,52.7
2019-04-14T07:21:41.305Z,49.1
2019-04-14T07:22:31.603Z,46.8
2019-04-14T07:23:21.402Z,45.3
2019-04-14T07:24:11.445Z,44.1
2019-04-14T07:25:01.580Z,43.2
2019-04-14T07:25:52.101Z,42.5
2019-04-14T07:26:42.165Z,42.1
2019-04-14T07:27:31.762Z,41.8
2019-04-14T07:28:22.284Z,41.8
2019-04-14T07:29:15.227Z,42.2
2019-04-14T07:30:02.166Z,42.8
2019-04-14T07:30:52.464Z,43.5
2019-04-14T07:31:42.541Z,44.3
2019-04-14T07:32:32.574Z,45.1
2019-04-14T07:33:22.656Z,45.8
2019-04-14T07:34:12.459Z,46.3
2019-04-14T07:35:02.839Z,46.7
2019-04-14T07:35:52.850Z,47
2019-04-14T07:36:42.906Z,47.4
2019-04-14T07:37:32.984Z,48
2019-04-14T07:38:22.779Z,48.4
2019-04-14T07:39:13.094Z,48.7
2019-04-14T07:40:02.717Z,48.8
2019-04-14T07:40:53.294Z,48.7
2019-04-14T07:41:42.736Z,48.6
2019-04-14T07:42:33.340Z,48.3
2019-04-14T07:43:23.399Z,48.1
2019-04-14T07:44:16.203Z,47.8
2019-04-14T07:45:03.269Z,47.4
2019-04-14T07:45:53.603Z,47.1
2019-04-14T07:46:43.665Z,46.7
2019-04-14T07:47:33.718Z,46.4
2019-04-14T07:48:23.510Z,46
2019-04-14T07:49:13.281Z,45.6
2019-04-14T07:50:16.780Z,45.3
2019-04-14T07:50:53.948Z,44.8
2019-04-14T07:51:43.850Z,44.5
2019-04-14T07:52:33.548Z,44.1
2019-04-14T07:53:23.869Z,43.8
2019-04-14T07:54:13.930Z,43.5
2019-04-14T07:55:03.717Z,43.3
2019-04-14T07:55:54.343Z,43.1
2019-04-14T07:56:43.892Z,42.8
2019-04-14T07:57:33.886Z,42.8
2019-04-14T07:58:24.510Z,42.6
2019-04-14T07:59:14.572Z,42.5
2019-04-14T08:00:04.357Z,42.4
2019-04-14T08:00:54.135Z,42.3
2019-04-14T08:01:44.745Z,42.1
2019-04-14T08:02:34.537Z,42
2019-04-14T08:03:24.330Z,41.9
2019-04-14T08:04:14.654Z,41.8
2019-04-14T08:05:05.014Z,41.7
2019-04-14T08:05:54.765Z,41.8
2019-04-14T08:06:45.125Z,41.9
2019-04-14T08:07:34.897Z,42
2019-04-14T08:08:24.953Z,42.1
2019-04-14T08:09:15.285Z,42.1
2019-04-14T08:10:05.411Z,42.3
2019-04-14T08:10:55.142Z,42.5
2019-04-14T08:11:45.239Z,42.8
2019-04-14T08:12:37.072Z,43.1
2019-04-14T08:13:25.039Z,43.4
2019-04-14T08:14:15.669Z,43.6
2019-04-14T08:15:05.454Z,43.8
2019-04-14T08:15:55.230Z,43.9
2019-04-14T08:16:45.849Z,43.9
2019-04-14T08:17:35.906Z,44.1
2019-04-14T08:18:25.985Z,44.3
2019-04-14T08:19:16.024Z,44.6
2019-04-14T08:20:05.852Z,45.1
2019-04-14T08:20:56.149Z,46.2
2019-04-14T08:21:45.920Z,47.2
2019-04-14T08:22:36.314Z,48.8
2019-04-14T08:23:26.043Z,50.6
2019-04-14T08:24:16.106Z,52.3
2019-04-14T08:25:05.351Z,53.4
2019-04-14T08:25:56.499Z,54.3
2019-04-14T08:26:46.629Z,55.4
2019-04-14T08:27:36.628Z,56.8
2019-04-14T08:28:26.692Z,58.3
2019-04-14T08:29:16.495Z,60.8
2019-04-14T08:30:06.834Z,61.8
2019-04-14T08:30:56.938Z,60
2019-04-14T08:31:46.938Z,57.3
2019-04-14T08:32:37.031Z,53.4
2019-04-14T08:33:27.063Z,50.3
2019-04-14T08:34:17.109Z,48.3
2019-04-14T08:35:06.908Z,47.1
2019-04-14T08:35:57.252Z,46.2
2019-04-14T08:36:47.310Z,45.5
2019-04-14T08:37:37.090Z,45
2019-04-14T08:38:27.460Z,44.6
2019-04-14T08:39:17.198Z,44.2
2019-04-14T08:40:07.598Z,43.9
2019-04-14T08:40:57.045Z,44.1
2019-04-14T08:41:47.382Z,44.9
2019-04-14T08:42:37.451Z,46.2
2019-04-14T08:43:27.551Z,47.8
2019-04-14T08:44:17.562Z,49.5
2019-04-14T08:45:07.957Z,50.9
2019-04-14T08:45:57.427Z,51.8
2019-04-14T08:46:47.765Z,52.2
2019-04-14T08:47:37.887Z,52.3
2019-04-14T08:48:27.884Z,52.3
2019-04-14T08:49:18.212Z,52.1
2019-04-14T08:50:08.299Z,51.8
2019-04-14T08:50:58.339Z,51.5
2019-04-14T08:51:48.135Z,51.3
2019-04-14T08:52:38.187Z,51.1
2019-04-14T08:53:28.240Z,50.9
2019-04-14T08:54:18.315Z,50.6
2019-04-14T08:55:08.389Z,50.3
2019-04-14T08:55:58.705Z,50.3
2019-04-14T08:56:47.961Z,50.3
2019-04-14T08:57:38.842Z,50.4
2019-04-14T08:58:28.339Z,50.5
2019-04-14T08:59:18.720Z,50.6
2019-04-14T09:00:08.529Z,50.8
2019-04-14T09:00:58.804Z,51.3
2019-04-14T09:02:38.924Z,53.8
2019-04-14T09:03:28.701Z,55.4
2019-04-14T09:04:19.034Z,57.1
2019-04-14T09:05:09.381Z,58.7
2019-04-14T09:05:58.883Z,60.3
2019-04-14T09:06:49.231Z,62.1
2019-04-14T09:07:39.278Z,61.7
2019-04-14T09:08:29.336Z,59.4
2019-04-14T09:09:19.413Z,56.5
2019-04-14T09:10:09.546Z,52.8
2019-04-14T09:10:59.791Z,49.9
2019-04-14T09:11:49.867Z,47.8
2019-04-14T09:12:39.385Z,46.4
2019-04-14T09:13:30.046Z,45.4
2019-04-14T09:14:19.773Z,45.1
2019-04-14T09:15:09.889Z,45.3
2019-04-14T09:15:59.921Z,45.6
2019-04-14T09:16:50.223Z,45.9
2019-04-14T09:17:40.021Z,46.1
2019-04-14T09:18:30.408Z,46
2019-04-14T09:19:20.179Z,45.8
2019-04-14T09:20:10.267Z,45.6
2019-04-14T09:20:59.712Z,45.4
2019-04-14T09:21:50.590Z,45.1
2019-04-14T09:22:40.441Z,44.8
2019-04-14T09:23:30.728Z,44.5
2019-04-14T09:24:20.540Z,44.3
2019-04-14T09:25:10.853Z,44.1
2019-04-14T09:26:00.633Z,43.8
2019-04-14T09:26:50.679Z,43.6
2019-04-14T09:27:40.475Z,43.3
2019-04-14T09:28:31.081Z,43.1
2019-04-14T09:29:20.872Z,42.8
2019-04-14T09:30:11.214Z,42.6
2019-04-14T09:31:01.262Z,42.3
2019-04-14T09:31:51.335Z,42.1
2019-04-14T09:32:41.432Z,41.9
2019-04-14T09:33:31.235Z,41.9
2019-04-14T09:34:21.511Z,42
2019-04-14T09:35:11.352Z,42.4
2019-04-14T09:36:01.349Z,43.3
2019-04-14T09:36:51.731Z,44.1
2019-04-14T09:37:41.737Z,44.6
2019-04-14T09:38:31.822Z,44.9
2019-04-14T09:39:21.869Z,44.9
2019-04-14T09:40:11.642Z,44.8
2019-04-14T09:41:01.990Z,44.4
2019-04-14T09:41:51.779Z,44.1
2019-04-14T09:42:41.579Z,43.8
2019-04-14T09:43:31.910Z,43.3
2019-04-14T09:44:22.237Z,42.9
2019-04-14T09:45:12.016Z,42.6
2019-04-14T09:46:02.361Z,42.1
2019-04-14T09:46:51.621Z,41.8
2019-04-14T09:47:42.262Z,41.4
2019-04-14T09:48:32.001Z,41
2019-04-14T09:49:22.052Z,40.7
2019-04-14T09:50:12.115Z,40.4
2019-04-14T09:51:06.928Z,40.1
2019-04-14T09:51:52.779Z,39.9
2019-04-14T09:52:42.596Z,39.6
2019-04-14T09:53:32.364Z,39.4
2019-04-14T09:54:22.688Z,39.2
2019-04-14T09:55:13.023Z,39.1
2019-04-14T09:56:03.090Z,38.9
2019-04-14T09:56:52.927Z,38.8
2019-04-14T09:57:42.814Z,38.7
2019-04-14T09:58:33.265Z,38.6
2019-04-14T09:59:23.346Z,38.4
2019-04-14T10:00:13.119Z,38.4
2019-04-14T10:01:03.495Z,38.2
2019-04-14T10:01:52.957Z,38.1
2019-04-14T10:02:43.043Z,37.9
2019-04-14T10:03:33.500Z,37.6
2019-04-14T10:06:00.340Z,36.9
2019-04-14T10:06:50.272Z,36.6
2019-04-14T10:07:40.493Z,36.3
2019-04-14T10:08:30.108Z,36.1
2019-04-14T10:09:20.457Z,35.8
2019-04-14T10:10:10.902Z,35.5
2019-04-14T10:11:00.565Z,35.3
2019-04-14T10:11:57.970Z,35.1
2019-04-14T10:12:41.018Z,34.8
2019-04-14T10:13:31.010Z,34.6
2019-04-14T10:14:20.257Z,34.4
2019-04-14T10:15:11.124Z,34.1
2019-04-14T10:16:00.662Z,33.9
2019-04-14T10:16:51.248Z,33.7
2019-04-14T10:17:40.527Z,33.4
2019-04-14T10:18:31.099Z,33.3
2019-04-14T10:19:20.880Z,33
2019-04-14T10:20:11.494Z,32.8
2019-04-14T10:21:01.545Z,32.5
2019-04-14T10:21:51.331Z,32.3
2019-04-14T10:22:41.152Z,32.1
2019-04-14T10:23:31.727Z,31.9
2019-04-14T10:24:21.524Z,31.8
2019-04-14T10:25:11.875Z,31.6
2019-04-14T10:26:01.932Z,31.4
2019-04-14T10:26:51.704Z,31.3
2019-04-14T10:27:42.129Z,31.1
2019-04-14T10:28:32.096Z,31
2019-04-14T10:29:22.186Z,30.8
2019-04-14T10:30:12.276Z,30.6
2019-04-14T10:31:02.290Z,30.3
2019-04-14T10:31:52.081Z,30.1
2019-04-14T10:32:42.409Z,29.9
2019-04-14T10:33:32.214Z,29.7
2019-04-14T10:34:21.993Z,29.5
2019-04-14T10:35:12.358Z,29.3
2019-04-14T10:36:02.403Z,29.2
2019-04-14T10:36:52.449Z,29.1
2019-04-14T10:37:42.583Z,29
2019-04-14T10:38:32.902Z,28.9
2019-04-14T10:39:22.069Z,28.9
2019-04-14T10:40:12.414Z,28.8
2019-04-14T10:41:03.056Z,28.8
2019-04-14T10:41:52.268Z,28.8
2019-04-14T10:42:43.149Z,28.8
2019-04-14T10:43:33.212Z,28.9
2019-04-14T10:44:22.995Z,29
2019-04-14T10:45:13.065Z,29.1
2019-04-14T10:46:03.420Z,29.2
2019-04-14T10:46:53.475Z,29.3
2019-04-14T10:47:43.499Z,29.4
2019-04-14T10:48:33.316Z,29.6
2019-04-14T10:49:23.385Z,29.9
2019-04-14T10:50:13.691Z,30.1
2019-04-14T10:51:03.757Z,30.4
2019-04-14T10:51:53.544Z,30.6
2019-04-14T10:52:43.333Z,30.8
2019-04-14T10:53:33.961Z,31.1
2019-04-14T10:54:23.515Z,31.3
2019-04-14T10:55:14.089Z,31.4
2019-04-14T10:56:03.856Z,31.6
2019-04-14T10:56:53.921Z,31.8
2019-04-14T10:57:44.246Z,31.8
2019-04-14T10:58:34.014Z,31.9
2019-04-14T10:59:24.373Z,31.9
2019-04-14T11:00:14.181Z,31.9
2019-04-14T11:01:04.228Z,31.9
2019-04-14T11:01:54.599Z,31.9
2019-04-14T11:02:44.340Z,31.9
2019-04-14T11:03:34.727Z,31.9
2019-04-14T11:04:24.441Z,31.9
2019-04-14T11:05:14.798Z,31.8
2019-04-14T11:06:04.589Z,31.9
2019-04-14T11:06:54.634Z,31.9
2019-04-14T11:07:44.782Z,31.9
2019-04-14T11:08:34.785Z,31.9
2019-04-14T11:09:24.824Z,31.9
2019-04-14T11:10:14.872Z,31.9
2019-04-14T11:11:05.209Z,32
2019-04-14T11:11:54.996Z,32.1
2019-04-14T11:12:45.342Z,32.1
2019-04-14T11:13:35.449Z,32.3
2019-04-14T11:14:25.192Z,32.4
2019-04-14T11:15:17.476Z,32.6
2019-04-14T11:16:05.588Z,32.8
2019-04-14T11:16:55.088Z,32.9
2019-04-14T11:17:45.727Z,33.1
2019-04-14T11:18:35.482Z,33.3
2019-04-14T11:19:25.824Z,33.4
2019-04-14T11:20:15.633Z,33.5
2019-04-14T11:21:05.676Z,33.6
2019-04-14T11:21:55.726Z,33.8
2019-04-14T11:22:45.812Z,33.9
2019-04-14T11:23:35.584Z,33.9
2019-04-14T11:24:25.980Z,33.9
2019-04-14T11:25:16.261Z,34
2019-04-14T11:26:06.123Z,33.9
2019-04-14T11:26:56.395Z,33.8
2019-04-14T11:27:46.438Z,33.7
2019-04-14T11:28:36.275Z,33.6
2019-04-14T11:29:26.570Z,33.4
2019-04-14T11:30:16.601Z,33.3
2019-04-14T11:31:06.420Z,33.1
2019-04-14T11:31:56.726Z,33.1
2019-04-14T11:32:46.528Z,33.3
2019-04-14T11:33:36.865Z,33.5
2019-04-14T11:34:26.912Z,33.9
2019-04-14T11:35:18.810Z,34.8
2019-04-14T11:36:07.060Z,36.3
2019-04-14T11:36:56.838Z,37.9
2019-04-14T11:37:46.908Z,39.9
2019-04-14T11:38:36.759Z,41.8
2019-04-14T11:39:26.749Z,43.6
2019-04-14T11:40:17.350Z,45.2
2019-04-14T11:41:07.428Z,46.7
2019-04-14T11:41:57.498Z,48.1
2019-04-14T11:42:54.492Z,49.4
2019-04-14T11:43:37.350Z,51.2
2019-04-14T11:44:27.179Z,52.4
2019-04-14T11:45:17.422Z,53.9
2019-04-14T11:46:07.580Z,55.4
2019-04-14T11:46:57.874Z,56.4
2019-04-14T11:47:47.632Z,58.1
2019-04-14T11:48:37.681Z,58.4
2019-04-14T11:49:28.027Z,56.3
2019-04-14T11:50:18.088Z,52.9
2019-04-14T11:51:07.569Z,48.5
2019-04-14T11:51:58.206Z,45.7
2019-04-14T11:52:48.257Z,43.9
2019-04-14T11:53:38.312Z,42.7
2019-04-14T11:54:28.409Z,41.6
2019-04-14T11:55:17.900Z,40.8
2019-04-14T11:56:08.579Z,40.1
2019-04-14T11:56:58.569Z,39.4
2019-04-14T11:57:48.462Z,38.8
2019-04-14T11:58:38.706Z,38.4
2019-04-14T11:59:27.914Z,37.9
2019-04-14T12:00:18.832Z,37.8
2019-04-14T12:01:08.574Z,37.8
2019-04-14T12:01:58.421Z,38.1
2019-04-14T12:02:48.744Z,38.5
2019-04-14T12:03:39.100Z,38.8
2019-04-14T12:06:00.103Z,38.6
2019-04-14T12:06:51.133Z,38.2
2019-04-14T12:07:40.218Z,38
2019-04-14T12:08:30.814Z,37.8
2019-04-14T12:09:20.847Z,37.6
2019-04-14T12:10:10.406Z,37.4
2019-04-14T12:11:00.938Z,37.1
2019-04-14T12:11:51.056Z,36.9
2019-04-14T12:12:40.318Z,36.7
2019-04-14T12:13:30.424Z,36.4
2019-04-14T12:14:20.708Z,36.1
2019-04-14T12:15:18.409Z,35.8
2019-04-14T12:16:00.821Z,35.5
2019-04-14T12:16:51.351Z,35.3
2019-04-14T12:17:40.668Z,35
2019-04-14T12:18:31.015Z,34.8
2019-04-14T12:19:21.345Z,34.3
2019-04-14T12:20:11.641Z,34.1
2019-04-14T12:21:01.475Z,33.9
2019-04-14T12:21:51.525Z,33.7
2019-04-14T12:22:41.052Z,33.4
2019-04-14T12:23:31.694Z,33.3
2019-04-14T12:24:21.455Z,33.1
2019-04-14T12:25:12.059Z,32.8
2019-04-14T12:26:07.487Z,32.6
2019-04-14T12:26:51.627Z,32.3
2019-04-14T12:27:44.252Z,32.1
2019-04-14T12:28:33.817Z,31.9
2019-04-14T12:30:14.224Z,31.4
2019-04-14T12:31:04.544Z,31.3
2019-04-14T12:31:55.177Z,31.2
2019-04-14T12:32:42.322Z,31.1
2019-04-14T12:33:32.292Z,31.1
2019-04-14T12:34:37.098Z,31
2019-04-14T12:35:12.253Z,30.9
2019-04-14T12:36:02.589Z,30.9
2019-04-14T12:36:52.849Z,30.9
2019-04-14T12:37:42.691Z,30.8
2019-04-14T12:38:32.751Z,30.8
2019-04-14T12:39:21.726Z,30.8
2019-04-14T12:40:12.351Z,30.8
2019-04-14T12:41:08.212Z,30.8
2019-04-14T12:41:52.993Z,30.8
2019-04-14T12:42:42.779Z,30.8
2019-04-14T12:43:32.846Z,30.9
2019-04-14T12:44:23.181Z,30.9
2019-04-14T12:45:13.699Z,31
2019-04-14T12:46:02.523Z,31.1
2019-04-14T12:46:53.079Z,31.3
2019-04-14T12:47:43.167Z,31.6
2019-04-14T12:48:33.476Z,32.4
2019-04-14T12:49:23.613Z,33.1